Time;durP1;ratioP1;P1;durP2;ratioP2;P2;SDS_P1;SDS_P2;PMS_P1;PMS_P2;Temp;Humidity;BMP_temperature;BMP_pressure;BME280_temperature;BME280_humidity;BME280_pressure;Samples;Min_cycle;Max_cycle;Signal;HPM_P1;HPM_P2
2023/07/06 00:01:21;;;;;;;10.70;5.60;;;;;;;19.67;69.46;99864.61;103345;1257;107156;-68
2023/07/06 00:03:54;;;;;;;9.90;5.50;;;;;;;19.66;69.78;99861.34;103496;1249;95252;-67
2023/07/06 00:06:21;;;;;;;8.60;5.60;;;;;;;19.63;69.73;99856.64;103037;1253;107094;-67
2023/07/06 00:08:53;;;;;;;10.20;5.00;;;;;;;19.60;69.79;99858.81;103246;1258;96523;-67
2023/07/06 00:11:20;;;;;;;8.00;4.90;;;;;;;19.57;69.66;99859.02;103211;1258;138151;-67
2023/07/06 00:13:48;;;;;;;9.70;5.00;;;;;;;19.54;69.73;99863.45;103363;1253;108805;-67
2023/07/06 00:16:20;;;;;;;9.00;5.10;;;;;;;19.51;69.73;99865.81;103228;1253;139022;-68
2023/07/06 00:18:48;;;;;;;7.20;4.60;;;;;;;19.48;69.80;99869.55;103308;1253;108862;-67
2023/07/06 00:21:15;;;;;;;6.70;4.90;;;;;;;19.44;69.87;99871.81;103321;1253;96452;-67
2023/07/06 00:23:43;;;;;;;8.60;5.40;;;;;;;19.43;69.93;99868.38;103156;1256;137945;-68
2023/07/06 00:26:10;;;;;;;9.80;5.30;;;;;;;19.43;70.08;99870.12;103132;1256;107711;-67
2023/07/06 00:28:38;;;;;;;8.80;5.20;;;;;;;19.42;70.21;99868.91;103151;1258;138239;-68
2023/07/06 00:31:10;;;;;;;7.00;5.00;;;;;;;19.42;70.05;99865.45;103246;1253;109357;-67
2023/07/06 00:33:39;;;;;;;7.30;4.80;;;;;;;19.40;70.13;99862.39;103226;1253;96478;-68
2023/07/06 00:36:07;;;;;;;7.50;4.70;;;;;;;19.38;70.24;99862.17;103073;1258;138419;-68
2023/07/06 00:38:34;;;;;;;8.80;4.70;;;;;;;19.36;70.31;99861.48;103086;1253;108244;-67
2023/07/06 00:41:02;;;;;;;6.70;4.10;;;;;;;19.35;70.43;99858.20;103033;1256;138234;-68
2023/07/06 00:43:44;;;;;;;10.70;4.40;;;;;;;19.32;70.28;99859.28;103210;1258;107060;-68
2023/07/06 00:46:14;;;;;;;6.20;4.30;;;;;;;19.30;70.35;99856.41;103047;1256;140116;-68
2023/07/06 00:48:45;;;;;;;7.70;4.40;;;;;;;19.28;70.39;99857.82;103401;1256;109317;-68
2023/07/06 00:51:16;;;;;;;9.60;4.20;;;;;;;19.27;70.24;99856.11;103019;1253;409463;-67
2023/07/06 00:53:48;;;;;;;5.90;4.60;;;;;;;19.27;70.48;99859.44;103227;1253;138163;-68
2023/07/06 00:56:19;;;;;;;10.80;4.40;;;;;;;19.28;70.43;99855.27;103338;1252;106709;-68
2023/07/06 00:58:48;;;;;;;9.10;4.00;;;;;;;19.28;70.53;99854.77;103272;1255;138378;-67
2023/07/06 01:01:20;;;;;;;6.20;4.40;;;;;;;19.27;70.48;99853.78;103391;1257;109508;-66
2023/07/06 01:03:52;;;;;;;6.20;4.30;;;;;;;19.26;70.41;99844.17;103275;1257;107985;-67
2023/07/06 01:06:24;;;;;;;7.70;4.20;;;;;;;19.26;70.40;99840.52;103201;1253;96447;-67
2023/07/06 01:08:53;;;;;;;6.00;4.50;;;;;;;19.28;70.25;99839.46;103324;1259;108135;-67
2023/07/06 01:11:21;;;;;;;6.00;4.20;;;;;;;19.28;70.39;99839.25;103164;1256;138425;-67
2023/07/06 01:13:51;;;;;;;6.30;4.00;;;;;;;19.27;70.30;99840.77;103370;1256;110097;-67
2023/07/06 01:16:26;;;;;;;7.00;4.30;;;;;;;19.28;70.14;99839.25;103238;1253;138464;-67
2023/07/06 01:19:02;;;;;;;6.50;4.10;;;;;;;19.28;70.30;99843.48;103262;1253;96941;-67
2023/07/06 01:21:40;;;;;;;6.80;3.80;;;;;;;19.29;70.26;99848.40;103229;1253;107279;-67
2023/07/06 01:24:40;;;;;;;5.80;4.30;;;;;;;19.28;70.24;99847.01;103168;1253;138216;-69
2023/07/06 01:27:25;;;;;;;6.20;4.50;;;;;;;19.27;70.16;99840.92;103369;1257;109785;-68
2023/07/06 01:30:25;;;;;;;6.30;4.40;;;;;;;19.27;69.98;99838.16;103189;1257;138120;-68
2023/07/06 01:32:57;;;;;;;6.90;3.90;;;;;;;19.30;70.12;99840.20;103373;1253;96442;-68
2023/07/06 01:35:31;;;;;;;6.30;4.30;;;;;;;19.29;69.96;99832.52;103208;1255;138400;-67
2023/07/06 01:37:59;;;;;;;5.20;4.20;;;;;;;19.28;70.07;99828.69;103286;1259;96432;-67
2023/07/06 01:40:26;;;;;;;5.40;4.00;;;;;;;19.28;70.03;99834.86;103276;1253;139018;-67
2023/07/06 01:42:53;;;;;;;5.80;4.00;;;;;;;19.28;69.97;99835.56;103346;1257;107722;-67
2023/07/06 01:45:24;;;;;;;6.00;4.00;;;;;;;19.29;69.96;99831.80;103291;1253;96453;-67
2023/07/06 01:47:56;;;;;;;6.70;4.00;;;;;;;19.31;69.97;99831.61;103169;1256;138098;-67
2023/07/06 01:50:32;;;;;;;5.50;4.10;;;;;;;19.38;69.89;99830.61;103320;1253;96456;-67
2023/07/06 01:53:08;;;;;;;7.80;4.00;;;;;;;19.42;69.67;99828.22;103156;1255;138198;-67
2023/07/06 01:55:41;;;;;;;7.40;4.30;;;;;;;19.43;69.47;99822.18;103419;1258;108084;-67
2023/07/06 01:58:17;;;;;;;7.30;3.40;;;;;;;19.42;69.47;99825.07;103231;1258;139038;-67
2023/07/06 02:00:50;;;;;;;6.20;3.80;;;;;;;19.41;69.56;99827.98;103490;1260;107158;-67
2023/07/06 02:03:18;;;;;;;7.70;4.10;;;;;;;19.40;69.48;99826.59;103364;1259;96438;-67
2023/07/06 02:05:46;;;;;;;5.90;4.30;;;;;;;19.41;69.69;99826.22;103050;1253;138335;-67
2023/07/06 02:08:15;;;;;;;5.80;4.20;;;;;;;19.41;69.57;99826.91;103306;1253;107079;-66
2023/07/06 02:10:42;;;;;;;10.00;4.50;;;;;;;19.40;69.54;99827.14;103486;1253;138708;-67
2023/07/06 02:13:09;;;;;;;5.70;4.60;;;;;;;19.37;69.54;99824.02;103303;1253;108102;-66
2023/07/06 02:15:36;;;;;;;7.20;4.50;;;;;;;19.36;69.61;99823.73;103337;1253;96454;-66
2023/07/06 02:18:03;;;;;;;6.10;4.90;;;;;;;19.34;69.66;99826.69;103279;1253;138154;-67
2023/07/06 02:20:31;;;;;;;5.50;4.30;;;;;;;19.30;69.93;99820.09;103367;1256;105605;-67
2023/07/06 02:23:04;;;;;;;5.20;4.60;;;;;;;19.26;70.05;99817.08;103270;1258;138257;-67
2023/07/06 02:25:32;;;;;;;10.10;4.40;;;;;;;19.21;70.10;99818.66;103255;1253;107887;-67
2023/07/06 02:27:59;;;;;;;9.00;4.40;;;;;;;19.19;70.18;99824.24;103375;1253;96418;-67
2023/07/06 02:30:26;;;;;;;5.90;4.50;;;;;;;19.17;70.34;99833.41;103391;1254;110042;-66
2023/07/06 02:32:53;;;;;;;6.00;4.20;;;;;;;19.13;70.51;99838.81;103356;1253;107016;-67
2023/07/06 02:35:20;;;;;;;5.60;4.20;;;;;;;19.09;70.74;99839.48;103345;1256;138299;-67
2023/07/06 02:37:48;;;;;;;6.40;4.20;;;;;;;19.08;70.74;99843.13;103233;1258;108495;-67
2023/07/06 02:40:17;;;;;;;6.70;4.50;;;;;;;19.06;70.77;99840.29;103253;1254;138229;-67
2023/07/06 02:42:44;;;;;;;8.70;4.50;;;;;;;19.02;71.05;99839.11;103389;1253;109969;-66
2023/07/06 02:45:12;;;;;;;7.00;4.20;;;;;;;19.00;70.99;99843.45;103356;1256;108320;-66
2023/07/06 02:47:40;;;;;;;7.60;4.70;;;;;;;18.98;71.19;99838.33;103286;1257;138135;-67
2023/07/06 02:50:11;;;;;;;5.90;4.40;;;;;;;18.95;71.21;99841.92;103305;1253;109283;-67
2023/07/06 02:52:39;;;;;;;6.10;4.60;;;;;;;18.92;71.44;99838.77;103255;1257;138356;-67
2023/07/06 02:55:09;;;;;;;6.00;4.20;;;;;;;18.93;71.48;99844.54;103224;1257;108830;-67
2023/07/06 02:57:39;;;;;;;6.70;4.60;;;;;;;18.93;71.61;99856.16;103409;1253;107786;-66
2023/07/06 03:00:14;;;;;;;6.60;4.60;;;;;;;18.91;71.75;99860.17;103251;1253;138366;-67
2023/07/06 03:02:41;;;;;;;8.50;4.40;;;;;;;18.92;71.81;99861.57;103265;1256;108073;-67
2023/07/06 03:05:10;;;;;;;7.70;4.80;;;;;;;18.92;71.93;99860.84;103108;1258;138639;-67
2023/07/06 03:07:37;;;;;;;7.20;4.80;;;;;;;18.92;71.92;99859.45;103272;1259;110077;-67
2023/07/06 03:10:05;;;;;;;5.80;4.40;;;;;;;18.90;71.96;99854.48;103220;1253;138268;-68
2023/07/06 03:12:37;;;;;;;8.20;5.00;;;;;;;18.88;72.13;99852.27;103925;1253;96904;-68
2023/07/06 03:15:05;;;;;;;9.20;5.10;;;;;;;18.88;72.30;99857.61;103336;1256;108018;-68
2023/07/06 03:17:33;;;;;;;6.10;4.90;;;;;;;18.88;72.38;99875.60;103216;1253;138473;-67
2023/07/06 03:20:00;;;;;;;9.80;5.60;;;;;;;18.90;72.55;99882.96;103355;1259;107904;-67
2023/07/06 03:22:27;;;;;;;8.80;4.50;;;;;;;18.92;72.60;99878.77;103267;1256;138248;-68
2023/07/06 03:24:54;;;;;;;7.70;5.20;;;;;;;18.95;72.81;99880.67;103396;1257;96312;-67
2023/07/06 03:27:22;;;;;;;6.80;5.20;;;;;;;18.96;72.54;99881.33;103385;1255;107707;-68
2023/07/06 03:29:49;;;;;;;7.20;5.10;;;;;;;18.96;72.68;99884.09;103215;1257;138124;-67
2023/07/06 03:32:16;;;;;;;8.80;5.50;;;;;;;18.99;72.87;99883.17;103333;1253;110070;-68
2023/07/06 03:34:45;;;;;;;6.80;4.60;;;;;;;19.02;72.85;99879.81;103201;1258;138231;-68
2023/07/06 03:37:12;;;;;;;7.90;5.20;;;;;;;19.04;72.74;99881.63;103436;1257;96424;-67
2023/07/06 03:39:40;;;;;;;12.00;5.90;;;;;;;19.04;72.87;99881.10;103304;1255;108874;-68
2023/07/06 03:42:09;;;;;;;9.00;5.50;;;;;;;19.03;72.99;99888.20;103285;1253;138390;-67
2023/07/06 03:44:36;;;;;;;8.20;6.20;;;;;;;19.03;72.97;99887.35;103386;1257;109567;-67
2023/07/06 03:47:03;;;;;;;9.50;5.50;;;;;;;19.04;72.99;99890.11;103151;1257;138153;-67
2023/07/06 03:49:33;;;;;;;7.80;5.40;;;;;;;19.06;73.05;99895.79;103408;1257;96997;-67
2023/07/06 03:52:02;;;;;;;8.60;5.90;;;;;;;19.04;73.16;99898.02;103390;1257;108254;-67
2023/07/06 03:54:29;;;;;;;7.90;5.70;;;;;;;19.03;73.21;99899.84;103341;1256;96609;-67
2023/07/06 03:56:57;;;;;;;7.80;5.70;;;;;;;19.06;73.46;99898.77;103450;1253;109971;-67
2023/07/06 03:59:24;;;;;;;8.10;5.80;;;;;;;19.06;73.41;99900.67;103386;1254;138103;-68
2023/07/06 04:01:51;;;;;;;7.90;5.70;;;;;;;19.06;73.49;99898.05;103412;1257;96448;-68
2023/07/06 04:04:28;;;;;;;10.80;5.60;;;;;;;19.05;73.66;99899.92;103202;1257;138172;-68
2023/07/06 04:06:55;;;;;;;9.40;5.80;;;;;;;19.06;73.78;99903.70;103336;1253;96490;-67
2023/07/06 04:09:24;;;;;;;10.40;6.00;;;;;;;19.11;73.92;99904.89;103347;1254;110849;-67
2023/07/06 04:11:52;;;;;;;12.40;5.90;;;;;;;19.11;73.68;99906.63;103167;1253;138311;-67
2023/07/06 04:14:24;;;;;;;12.10;5.70;;;;;;;19.11;73.83;99909.67;103587;1257;96722;-67
2023/07/06 04:16:51;;;;;;;10.70;6.20;;;;;;;19.11;73.93;99908.59;103308;1255;138137;-67
2023/07/06 04:19:18;;;;;;;7.80;5.30;;;;;;;19.12;73.92;99911.48;103317;1257;96471;-68
2023/07/06 04:21:45;;;;;;;9.30;6.10;;;;;;;19.16;74.07;99918.80;103383;1254;111141;-68
2023/07/06 04:24:12;;;;;;;13.20;7.10;;;;;;;19.22;74.05;99919.92;103226;1252;138118;-68
2023/07/06 04:26:40;;;;;;;13.50;6.80;;;;;;;19.25;73.92;99918.83;103311;1256;96320;-68
2023/07/06 04:29:10;;;;;;;12.30;6.60;;;;;;;19.25;73.81;99920.81;103262;1252;139051;-67
2023/07/06 04:31:37;;;;;;;10.60;7.50;;;;;;;19.25;73.93;99922.50;103383;1253;96456;-67
2023/07/06 04:34:04;;;;;;;12.90;6.70;;;;;;;19.29;73.92;99923.45;103277;1253;138860;-68
2023/07/06 04:36:32;;;;;;;13.50;7.40;;;;;;;19.38;73.87;99922.15;103346;1253;108460;-68
2023/07/06 04:38:59;;;;;;;11.40;7.00;;;;;;;19.43;73.77;99921.09;103402;1257;96569;-67
2023/07/06 04:41:27;;;;;;;14.10;7.10;;;;;;;19.51;73.65;99920.64;103203;1256;139002;-67
2023/07/06 04:43:55;;;;;;;12.70;6.50;;;;;;;19.59;73.56;99918.47;103400;1255;96504;-67
2023/07/06 04:46:22;;;;;;;14.90;6.60;;;;;;;19.66;73.37;99920.06;103254;1255;139272;-68
2023/07/06 04:48:49;;;;;;;13.30;6.70;;;;;;;19.71;73.17;99924.44;103334;1253;107105;-67
2023/07/06 04:51:18;;;;;;;9.70;6.00;;;;;;;19.75;73.25;99933.32;103399;1253;96536;-67
2023/07/06 04:53:45;;;;;;;13.10;6.40;;;;;;;19.75;72.93;99934.55;103264;1257;137946;-67
2023/07/06 04:56:12;;;;;;;8.90;5.90;;;;;;;19.74;72.81;99936.05;103305;1259;96480;-66
2023/07/06 04:58:41;;;;;;;10.60;6.60;;;;;;;19.73;72.88;99936.45;103221;1255;138849;-66
2023/07/06 05:01:08;;;;;;;11.40;6.20;;;;;;;19.73;72.75;99940.37;103311;1253;107871;-66
2023/07/06 05:03:38;;;;;;;9.50;6.50;;;;;;;19.72;72.69;99941.84;103418;1256;96410;-67
2023/07/06 05:06:12;;;;;;;12.60;6.70;;;;;;;19.72;72.79;99942.17;103348;1253;138052;-70
2023/07/06 05:08:43;;;;;;;7.20;6.20;;;;;;;19.75;72.83;99948.84;103310;1254;96438;-67
2023/07/06 05:11:10;;;;;;;11.40;6.00;;;;;;;19.81;72.89;99949.83;103282;1259;138013;-66
2023/07/06 05:13:38;;;;;;;9.30;5.40;;;;;;;19.90;72.74;99955.06;103414;1254;108153;-68
2023/07/06 05:16:05;;;;;;;8.80;6.70;;;;;;;20.00;72.65;99958.44;103263;1253;138341;-67
2023/07/06 05:18:33;;;;;;;10.40;6.00;;;;;;;20.10;72.48;99967.20;103391;1254;107703;-69
2023/07/06 05:21:00;;;;;;;7.40;5.80;;;;;;;20.16;72.08;99971.65;103381;1257;96341;-70
2023/07/06 05:23:28;;;;;;;11.20;6.00;;;;;;;20.18;71.87;99972.95;103228;1257;137961;-67
2023/07/06 05:26:00;;;;;;;10.10;5.90;;;;;;;20.21;71.98;99974.98;103255;1257;107617;-66
2023/07/06 05:28:29;;;;;;;9.90;6.10;;;;;;;20.32;72.00;99976.42;103371;1256;139442;-67
2023/07/06 05:30:56;;;;;;;10.40;6.30;;;;;;;20.44;71.57;99973.77;103234;1258;110256;-68
2023/07/06 05:33:23;;;;;;;9.40;6.10;;;;;;;20.64;71.51;99973.59;103327;1256;96513;-67
2023/07/06 05:35:50;;;;;;;11.00;5.80;;;;;;;20.98;71.07;99975.16;103070;1257;138017;-65
2023/07/06 05:38:19;;;;;;;14.40;6.60;;;;;;;21.33;70.44;99976.42;103301;1253;107832;-66
2023/07/06 05:40:46;;;;;;;8.40;6.00;;;;;;;21.72;69.80;99974.66;103755;1256;139374;-66
2023/07/06 05:43:13;;;;;;;12.00;6.30;;;;;;;22.04;68.81;99975.35;103686;1254;107725;-66
2023/07/06 05:45:40;;;;;;;10.20;6.30;;;;;;;22.41;68.17;99979.14;103473;1257;96628;-67
2023/07/06 05:48:07;;;;;;;12.70;6.00;;;;;;;22.78;67.25;99976.44;103534;1257;138189;-66
2023/07/06 05:50:34;;;;;;;11.10;6.20;;;;;;;23.08;66.54;99974.86;103569;1257;108748;-68
2023/07/06 05:53:02;;;;;;;11.10;6.10;;;;;;;23.35;65.74;99976.19;103261;1254;138305;-68
2023/07/06 05:55:30;;;;;;;12.10;6.30;;;;;;;23.55;65.12;99983.79;103419;1256;107594;-67
2023/07/06 05:57:57;;;;;;;8.00;5.80;;;;;;;23.68;64.26;99992.34;103316;1254;96707;-68
2023/07/06 06:00:25;;;;;;;11.70;6.40;;;;;;;23.72;63.74;100002.19;103408;1257;111085;-67
2023/07/06 06:02:52;;;;;;;12.50;6.30;;;;;;;23.77;63.36;100004.73;103409;1257;107462;-67
2023/07/06 06:05:19;;;;;;;10.70;6.70;;;;;;;23.81;62.97;100016.23;103220;1253;138469;-68
2023/07/06 06:07:46;;;;;;;12.50;6.60;;;;;;;23.67;62.58;100013.24;103337;1256;109490;-67
2023/07/06 06:10:14;;;;;;;12.20;7.00;;;;;;;23.45;62.33;100012.93;103226;1255;139039;-68
2023/07/06 06:12:41;;;;;;;10.50;6.50;;;;;;;23.24;62.76;100017.98;103362;1253;109689;-67
2023/07/06 06:15:11;;;;;;;13.10;7.00;;;;;;;23.16;62.96;100023.14;103323;1254;108017;-67
2023/07/06 06:17:38;;;;;;;10.00;6.40;;;;;;;23.05;63.15;100030.66;103132;1257;138664;-67
2023/07/06 06:20:08;;;;;;;14.00;7.80;;;;;;;22.97;63.12;100040.76;102832;1258;140003;-67
2023/07/06 06:22:37;;;;;;;11.30;7.20;;;;;;;22.87;63.17;100046.06;103115;1260;97803;-67
2023/07/06 06:25:05;;;;;;;11.10;6.80;;;;;;;22.94;63.51;100050.42;103002;1254;138911;-67
2023/07/06 06:27:32;;;;;;;10.40;6.80;;;;;;;23.06;63.36;100049.36;103055;1267;108489;-69
2023/07/06 06:29:59;;;;;;;24.30;7.50;;;;;;;23.10;63.10;100048.50;103060;1256;98008;-68
2023/07/06 06:32:30;;;;;;;17.20;8.70;;;;;;;23.15;63.17;100051.77;102993;1259;138438;-67
2023/07/06 06:34:57;;;;;;;14.70;7.50;;;;;;;23.26;62.97;100047.25;103011;1254;97907;-67
2023/07/06 06:37:24;;;;;;;12.90;6.90;;;;;;;23.45;62.88;100048.74;102996;1254;138484;-68
2023/07/06 06:39:52;;;;;;;11.50;6.40;;;;;;;24.37;62.55;100048.70;103053;1254;107323;-68
2023/07/06 06:42:19;;;;;;;12.90;6.30;;;;;;;26.27;60.69;100035.60;103147;1258;97788;-68
2023/07/06 06:44:46;;;;;;;10.90;5.70;;;;;;;28.29;57.21;100037.13;103109;1256;137779;-68
2023/07/06 06:47:13;;;;;;;10.60;5.90;;;;;;;30.05;54.28;100034.52;103193;1254;98902;-68
2023/07/06 06:49:40;;;;;;;9.10;5.40;;;;;;;31.99;50.62;100034.44;103079;1254;139093;-68
2023/07/06 06:52:08;;;;;;;9.40;5.10;;;;;;;33.37;47.44;100032.95;103131;1259;100116;-68
2023/07/06 06:54:36;;;;;;;10.90;5.30;;;;;;;34.54;44.33;100030.48;103221;1259;97791;-68
2023/07/06 06:57:05;;;;;;;12.60;5.00;;;;;;;34.58;42.13;100039.11;103140;1255;99339;-69
2023/07/06 06:59:32;;;;;;;7.50;4.70;;;;;;;33.93;41.38;100042.55;103225;1258;97793;-69
2023/07/06 07:02:01;;;;;;;7.60;4.40;;;;;;;33.23;41.52;100051.33;102957;1259;137687;-68
2023/07/06 07:04:30;;;;;;;9.30;4.20;;;;;;;32.51;41.04;100051.63;103332;1254;99421;-68
2023/07/06 07:07:02;;;;;;;6.40;4.40;;;;;;;31.85;41.41;100054.17;103155;1258;137981;-68
2023/07/06 07:09:30;;;;;;;7.50;4.70;;;;;;;31.31;41.79;100058.88;103266;1254;110117;-68
2023/07/06 07:11:57;;;;;;;10.40;4.90;;;;;;;31.01;42.11;100062.89;103191;1254;97771;-68
2023/07/06 07:14:24;;;;;;;8.20;5.50;;;;;;;30.66;42.17;100059.39;103144;1260;137973;-68
2023/07/06 07:16:51;;;;;;;9.70;4.60;;;;;;;31.16;42.11;100068.60;103194;1257;107402;-68
2023/07/06 07:19:21;;;;;;;20.10;5.50;;;;;;;32.03;40.95;100070.99;103165;1254;138879;-68
2023/07/06 07:21:48;;;;;;;14.10;5.40;;;;;;;32.41;39.84;100072.33;103159;1260;107935;-69
2023/07/06 07:24:16;;;;;;;6.10;4.50;;;;;;;32.29;39.28;100071.90;103167;1258;97772;-69
2023/07/06 07:26:48;;;;;;;7.60;4.30;;;;;;;32.59;38.81;100070.48;103112;1254;137650;-71
2023/07/06 07:29:16;;;;;;;7.30;4.90;;;;;;;33.59;37.78;100072.23;103130;1259;98971;-71
2023/07/06 07:31:43;;;;;;;7.90;4.30;;;;;;;34.85;36.04;100064.16;103187;1254;137684;-70
2023/07/06 07:34:14;;;;;;;8.50;4.00;;;;;;;35.95;34.42;100067.83;103082;1254;100827;-70
2023/07/06 07:36:41;;;;;;;7.60;3.60;;;;;;;36.95;32.77;100067.92;103039;1260;138664;-71
2023/07/06 07:39:08;;;;;;;9.20;4.10;;;;;;;37.92;31.84;100070.41;103195;1257;102279;-71
2023/07/06 07:41:35;;;;;;;8.30;3.40;;;;;;;38.87;30.65;100070.98;103117;1254;100086;-71
2023/07/06 07:44:03;;;;;;;7.50;4.00;;;;;;;39.56;29.45;100069.49;102963;1254;137825;-70
2023/07/06 07:46:30;;;;;;;10.10;3.80;;;;;;;40.03;28.91;100069.23;103020;1260;100612;-70
2023/07/06 07:48:58;;;;;;;8.00;3.60;;;;;;;40.22;27.19;100072.20;103049;1260;137347;-71
2023/07/06 07:51:27;;;;;;;10.30;3.80;;;;;;;39.70;26.87;100075.98;103176;1254;103624;-71
2023/07/06 07:53:56;;;;;;;5.80;3.30;;;;;;;39.33;27.03;100077.13;103177;1258;99040;-71
2023/07/06 07:56:25;;;;;;;6.70;3.10;;;;;;;39.30;26.43;100078.71;103147;1254;137649;-71
2023/07/06 07:58:52;;;;;;;5.60;3.40;;;;;;;39.39;26.43;100082.94;103166;1259;101145;-71
2023/07/06 08:01:21;;;;;;;8.10;3.40;;;;;;;39.88;26.13;100091.63;103127;1254;137909;-70
2023/07/06 08:03:49;;;;;;;14.90;3.70;;;;;;;40.37;25.67;100088.08;103110;1259;103964;-72
2023/07/06 08:06:18;;;;;;;6.60;3.20;;;;;;;40.71;25.23;100086.71;103239;1254;100052;-72
2023/07/06 08:08:47;;;;;;;10.20;3.20;;;;;;;41.01;24.62;100083.55;103048;1258;137768;-71
2023/07/06 08:11:20;;;;;;;6.60;3.10;;;;;;;41.00;24.37;100081.14;103164;1258;99729;-70
2023/07/06 08:13:50;;;;;;;6.20;3.30;;;;;;;40.98;24.22;100085.16;103330;1257;137630;-70
2023/07/06 08:16:19;;;;;;;9.20;3.40;;;;;;;41.25;24.26;100084.92;103225;1257;103940;-70
2023/07/06 08:18:49;;;;;;;4.80;3.30;;;;;;;41.40;23.54;100088.34;103012;1254;138655;-71
2023/07/06 08:21:23;;;;;;;4.60;2.80;;;;;;;41.46;23.30;100086.99;103102;1255;97734;-70
2023/07/06 08:24:13;;;;;;;10.40;3.00;;;;;;;41.41;22.85;100087.54;103174;1258;98848;-70
2023/07/06 08:26:40;;;;;;;11.30;2.80;;;;;;;41.25;22.54;100086.66;103046;1254;138050;-70
2023/07/06 08:29:07;;;;;;;6.70;3.40;;;;;;;41.05;22.44;100092.04;103262;1255;111358;-71
2023/07/06 08:31:36;;;;;;;8.30;2.90;;;;;;;41.09;22.29;100093.84;102930;1260;138060;-70
2023/07/06 08:34:03;;;;;;;9.80;3.00;;;;;;;41.16;22.23;100089.78;103240;1254;97676;-69
2023/07/06 08:36:30;;;;;;;7.30;3.00;;;;;;;41.21;22.32;100093.39;103169;1260;100063;-69
2023/07/06 08:38:57;;;;;;;5.60;2.70;;;;;;;41.19;22.27;100092.73;103132;1254;137789;-70
2023/07/06 08:41:29;;;;;;;7.60;3.50;;;;;;;40.74;22.30;100090.42;103239;1254;112963;-69
2023/07/06 08:43:59;;;;;;;5.50;2.90;;;;;;;39.71;22.52;100086.69;103082;1254;138549;-70
2023/07/06 08:46:28;;;;;;;6.60;3.20;;;;;;;38.53;22.84;100093.00;103405;1254;97853;-70
2023/07/06 08:48:56;;;;;;;6.30;3.20;;;;;;;37.38;23.45;100101.47;102956;1254;138624;-71
2023/07/06 08:51:30;;;;;;;11.50;3.30;;;;;;;36.50;24.05;100105.44;103159;1254;97780;-70
2023/07/06 08:54:01;;;;;;;8.20;3.10;;;;;;;36.02;24.42;100104.69;103440;1254;103798;-70
2023/07/06 08:56:34;;;;;;;4.70;3.40;;;;;;;35.93;24.93;100105.84;103089;1254;138009;-69
2023/07/06 08:59:07;;;;;;;7.60;2.60;;;;;;;36.10;24.93;100102.05;102915;1260;97862;-70
2023/07/06 09:01:36;;;;;;;6.50;2.60;;;;;;;36.29;24.72;100103.16;103073;1255;137656;-70
2023/07/06 09:04:14;;;;;;;10.00;3.00;;;;;;;36.32;24.56;100100.45;103215;1254;98554;-70
2023/07/06 09:06:47;;;;;;;4.50;2.40;;;;;;;35.91;24.49;100104.65;103150;1254;137974;-71
2023/07/06 09:09:14;;;;;;;7.30;2.60;;;;;;;35.27;24.55;100109.03;103136;1254;100847;-70
2023/07/06 09:11:44;;;;;;;7.50;2.60;;;;;;;34.75;24.94;100107.56;103188;1260;97880;-70
2023/07/06 09:14:13;;;;;;;8.20;3.20;;;;;;;34.46;25.40;100110.69;103061;1254;137589;-70
2023/07/06 09:16:55;;;;;;;10.20;3.00;;;;;;;34.32;25.37;100120.66;103384;1257;98262;-70
2023/07/06 09:19:23;;;;;;;5.60;2.50;;;;;;;34.03;25.59;100122.60;103118;1254;138029;-70
2023/07/06 09:21:54;;;;;;;4.60;3.10;;;;;;;33.70;25.87;100123.19;103248;1254;100433;-70
2023/07/06 09:24:27;;;;;;;5.50;3.00;;;;;;;33.27;26.11;100121.01;103213;1254;97778;-70
2023/07/06 09:26:58;;;;;;;10.90;3.10;;;;;;;32.70;26.63;100118.05;103060;1257;137667;-71
2023/07/06 09:29:30;;;;;;;4.80;3.00;;;;;;;32.18;27.16;100124.91;103328;1254;97787;-70
2023/07/06 09:32:11;;;;;;;6.50;2.90;;;;;;;31.76;27.65;100129.21;103068;1254;137754;-70
2023/07/06 09:34:41;;;;;;;5.50;2.70;;;;;;;31.38;28.09;100128.33;103037;1260;110509;-71
2023/07/06 09:37:12;;;;;;;6.30;2.90;;;;;;;31.11;28.30;100131.37;103279;1259;138076;-70
2023/07/06 09:39:42;;;;;;;7.70;2.80;;;;;;;30.87;28.46;100130.20;103158;1260;107715;-70
2023/07/06 09:42:14;;;;;;;5.10;3.10;;;;;;;30.63;28.88;100138.17;103127;1260;97823;-70
2023/07/06 09:44:42;;;;;;;7.20;3.40;;;;;;;30.45;29.12;100139.91;103053;1254;137637;-78
2023/07/06 09:47:13;;;;;;;8.20;2.80;;;;;;;30.29;29.07;100143.88;103169;1258;107773;-70
2023/07/06 09:49:47;;;;;;;7.10;2.80;;;;;;;30.21;29.49;100145.16;103020;1257;137747;-70
2023/07/06 09:52:19;;;;;;;7.00;2.70;;;;;;;30.16;29.67;100147.73;103084;1254;107674;-71
2023/07/06 09:54:54;;;;;;;7.80;3.30;;;;;;;30.07;29.61;100147.95;103064;1254;137972;-71
2023/07/06 09:57:24;;;;;;;8.00;3.30;;;;;;;30.06;29.98;100151.84;103066;1254;111436;-69
2023/07/06 09:59:52;;;;;;;6.40;3.40;;;;;;;30.04;29.71;100155.67;103117;1254;107734;-69
2023/07/06 10:02:29;;;;;;;9.80;2.80;;;;;;;29.83;29.41;100160.06;103094;1255;139243;-69
2023/07/06 10:05:04;;;;;;;7.40;2.80;;;;;;;29.59;29.65;100159.46;103631;1254;108655;-69
2023/07/06 10:07:48;;;;;;;7.80;3.00;;;;;;;29.50;30.02;100158.51;103285;1258;137818;-69
2023/07/06 10:10:23;;;;;;;8.40;3.10;;;;;;;29.46;29.95;100160.86;103186;1258;110450;-71
2023/07/06 10:13:00;;;;;;;6.60;2.60;;;;;;;29.44;29.90;100160.42;103473;1254;138465;-69
2023/07/06 10:15:34;;;;;;;8.70;3.30;;;;;;;29.50;30.17;100164.04;103183;1254;97857;-71
2023/07/06 10:18:09;;;;;;;10.60;2.90;;;;;;;29.57;30.26;100163.43;103406;1254;107861;-69
2023/07/06 10:20:44;;;;;;;8.50;2.90;;;;;;;29.62;30.24;100153.77;103063;1258;138160;-71
2023/07/06 10:23:22;;;;;;;8.60;2.90;;;;;;;29.64;29.95;100151.70;103189;1259;112168;-69
2023/07/06 10:25:59;;;;;;;10.70;2.80;;;;;;;29.73;30.06;100150.46;103037;1254;137739;-69
2023/07/06 10:28:31;;;;;;;8.10;2.90;;;;;;;29.88;29.99;100143.98;103167;1260;97846;-69
2023/07/06 10:31:03;;;;;;;6.70;3.30;;;;;;;30.05;29.92;100147.48;103072;1254;137980;-70
2023/07/06 10:33:37;;;;;;;8.50;2.60;;;;;;;30.35;29.65;100144.91;103209;1254;97801;-70
2023/07/06 10:36:07;;;;;;;7.70;2.90;;;;;;;30.62;29.29;100144.61;103203;1254;112006;-70
2023/07/06 10:38:34;;;;;;;13.30;3.00;;;;;;;30.94;28.68;100147.05;103066;1254;137744;-69
2023/07/06 10:41:25;;;;;;;9.80;2.70;;;;;;;31.14;28.97;100147.91;103136;1260;97839;-64
2023/07/06 10:43:56;;;;;;;5.20;3.10;;;;;;;31.16;28.21;100152.83;103127;1254;138027;-65
2023/07/06 10:46:35;;;;;;;12.00;4.70;;;;;;;31.31;28.44;100155.01;103261;1259;97695;-65
2023/07/06 10:49:17;;;;;;;11.50;3.60;;;;;;;31.51;28.49;100155.29;103348;1254;138100;-65
2023/07/06 10:51:51;;;;;;;8.90;3.10;;;;;;;31.66;28.19;100153.79;103260;1259;108224;-65
2023/07/06 10:54:26;;;;;;;7.70;2.50;;;;;;;31.64;27.71;100155.38;103315;1258;97788;-65
2023/07/06 10:57:03;;;;;;;10.00;3.60;;;;;;;31.47;27.47;100153.28;103129;1254;137472;-65
2023/07/06 10:59:35;;;;;;;;;;;;;;;31.36;27.52;100156.03;103336;1254;97771;-68
2023/07/06 11:02:14;;;;;;;5.40;2.40;;;;;;;31.24;27.46;100155.16;103162;1254;124139;-65
2023/07/06 11:04:53;;;;;;;6.10;2.70;;;;;;;31.16;27.29;100158.42;103240;1254;108088;-65
2023/07/06 11:07:47;;;;;;;7.40;2.80;;;;;;;31.10;27.36;100159.87;103252;1254;138375;-65
2023/07/06 11:10:36;;;;;;;3.50;2.50;;;;;;;30.99;27.08;100165.89;103251;1254;107430;-65
2023/07/06 11:13:19;;;;;;;7.20;2.70;;;;;;;30.82;26.92;100164.74;103180;1254;138017;-65
2023/07/06 11:16:04;;;;;;;5.00;2.80;;;;;;;30.58;27.15;100166.23;103303;1254;111741;-65
2023/07/06 11:18:38;;;;;;;7.20;2.40;;;;;;;30.37;27.26;100174.09;103259;1259;107763;-65
2023/07/06 11:21:19;;;;;;;8.40;2.20;;;;;;;30.17;27.62;100172.21;103497;1254;97891;-65
2023/07/06 11:23:54;;;;;;;8.70;2.60;;;;;;;30.15;28.13;100169.19;103565;1254;108180;-65
2023/07/06 11:26:41;;;;;;;8.10;2.90;;;;;;;30.21;28.05;100171.35;103236;1258;137777;-65
2023/07/06 11:29:08;;;;;;;;;;;;;;;30.14;27.58;100169.44;103332;1253;112183;-65